<?xml version="1.0" encoding="UTF-8" standalone="no" ?>
<gpx xmlns="http://www.topografix.com/GPX/1/1" xmlns:xsi="http://www.w3.org/2001/XMLSchema-instance" xsi:schemaLocation="http://www.topografix.com/GPX/1/1 http://www.topografix.com/GPX/1/1/gpx.xsd" version="1.1" creator="VisuGPX - https://www.visugpx.com">
  <metadata>
    <name>Pourtet du Barbat 2353 m</name>
    <desc><![CDATA[Randonnée à skis au départ du Lac d'Estaing.]]></desc>
  </metadata>
  <wpt lat="42.90399" lon="-0.21097">
    <ele>1153.94</ele>
    <name><![CDATA[0000012]]></name>
    <type><![CDATA[Point de départ]]></type>
  </wpt>
  <wpt lat="42.90442" lon="-0.21086">
    <ele>1173.08</ele>
    <name><![CDATA[0000013]]></name>
    <desc><![CDATA[<p><br /><h3>Nom: Segment: 1</h3><br />Heure de départ: 01/30/2018 08:38<br/>Heure d'arrivée: 01/30/2018 15:32<br/>Distance: 12,7km (06:53)<br/>Temps déplacement: 02:27<br/>Vitesse moyenne: 1,84 km/h<br/>Vitesse moyenne mouv.: 5,08 km/h<br/>Vitesse Max.: 33,03 km/h<br/>Altitude minimale: 1099 m<br/>Altitude maximale: 2359 m<br/>Vitesse de montée: 238,5 m/h<br/>Vitesse de descente: -890,5 m/h<br/>Gain d'altitude: 1297 m<br/>Perte d'altitude: -1276 m<br/>Temps de montée: 05:26<br/>Temps de descente: 01:25<br/></p>]]></desc>
    <type><![CDATA[Point d'arrivée]]></type>
  </wpt>
  <trk>
    <name><![CDATA[2018-01-30 08:38]]></name>
    <desc><![CDATA[<p>Heure de départ: 01/30/2018 08:38<br/>Heure d'arrivée: 01/30/2018 15:32<br/>Distance: 12,7 km (06:53)<br/>Temps déplacement: 02:27<br/>Vitesse moyenne: 1,84 km/h<br/>Vitesse moyenne mouv.: 5,17 km/h<br/>Vitesse Max.: 33,03 km/h<br/>Altitude minimale: 1099 m<br/>Altitude maximale: 2359 m<br/>Vitesse de montée: 235,5 m/h<br/>Vitesse de descente: -876,4 m/h<br/>Gain d'altitude: 1279 m<br/>Perte d'altitude: -1264 m<br/>Temps de montée: 05:26<br/>Temps de descente: 01:26<br/></p><hr align="center" width="480" style="height: 2px; width: 517px"/>]]></desc>
    <trkseg>
      <trkpt lat="42.90399" lon="-0.21097">
        <ele>1153.94</ele>
        <time>2018-01-30T07:38:40Z</time>
      </trkpt>
      <trkpt lat="42.90416" lon="-0.21087">
        <ele>1164.86</ele>
        <time>2018-01-30T07:38:49Z</time>
      </trkpt>
      <trkpt lat="42.90435" lon="-0.21092">
        <ele>1165.82</ele>
        <time>2018-01-30T07:39:52Z</time>
      </trkpt>
      <trkpt lat="42.90428" lon="-0.21069">
        <ele>1158.45</ele>
        <time>2018-01-30T07:42:02Z</time>
      </trkpt>
      <trkpt lat="42.90436" lon="-0.21091">
        <ele>1171.35</ele>
        <time>2018-01-30T07:46:22Z</time>
      </trkpt>
      <trkpt lat="42.90417" lon="-0.21086">
        <ele>1169.85</ele>
        <time>2018-01-30T07:47:26Z</time>
      </trkpt>
      <trkpt lat="42.90397" lon="-0.2109">
        <ele>1168.31</ele>
        <time>2018-01-30T07:47:47Z</time>
      </trkpt>
      <trkpt lat="42.9038" lon="-0.211">
        <ele>1167.09</ele>
        <time>2018-01-30T07:48:01Z</time>
      </trkpt>
      <trkpt lat="42.90365" lon="-0.21116">
        <ele>1165.95</ele>
        <time>2018-01-30T07:48:22Z</time>
      </trkpt>
      <trkpt lat="42.90346" lon="-0.21125">
        <ele>1166.66</ele>
        <time>2018-01-30T07:48:34Z</time>
      </trkpt>
      <trkpt lat="42.90331" lon="-0.21138">
        <ele>1167.78</ele>
        <time>2018-01-30T07:48:45Z</time>
      </trkpt>
      <trkpt lat="42.90315" lon="-0.21152">
        <ele>1170.02</ele>
        <time>2018-01-30T07:49:05Z</time>
      </trkpt>
      <trkpt lat="42.903" lon="-0.21165">
        <ele>1172.91</ele>
        <time>2018-01-30T07:49:21Z</time>
      </trkpt>
      <trkpt lat="42.90282" lon="-0.21174">
        <ele>1174.76</ele>
        <time>2018-01-30T07:49:37Z</time>
      </trkpt>
      <trkpt lat="42.90274" lon="-0.21196">
        <ele>1183.46</ele>
        <time>2018-01-30T07:52:33Z</time>
      </trkpt>
      <trkpt lat="42.90266" lon="-0.21174">
        <ele>1197.86</ele>
        <time>2018-01-30T07:55:34Z</time>
      </trkpt>
      <trkpt lat="42.90259" lon="-0.21151">
        <ele>1200.12</ele>
        <time>2018-01-30T07:55:51Z</time>
      </trkpt>
      <trkpt lat="42.90252" lon="-0.21128">
        <ele>1201.05</ele>
        <time>2018-01-30T07:56:09Z</time>
      </trkpt>
      <trkpt lat="42.90266" lon="-0.21113">
        <ele>1206.16</ele>
        <time>2018-01-30T07:59:03Z</time>
      </trkpt>
      <trkpt lat="42.9028" lon="-0.21097">
        <ele>1207.35</ele>
        <time>2018-01-30T07:59:43Z</time>
      </trkpt>
      <trkpt lat="42.90294" lon="-0.2108">
        <ele>1207.98</ele>
        <time>2018-01-30T08:00:05Z</time>
      </trkpt>
      <trkpt lat="42.90312" lon="-0.21071">
        <ele>1208.23</ele>
        <time>2018-01-30T08:00:32Z</time>
      </trkpt>
      <trkpt lat="42.9033" lon="-0.21063">
        <ele>1208.2</ele>
        <time>2018-01-30T08:00:49Z</time>
      </trkpt>
      <trkpt lat="42.90348" lon="-0.21057">
        <ele>1208.33</ele>
        <time>2018-01-30T08:01:07Z</time>
      </trkpt>
      <trkpt lat="42.90365" lon="-0.21049">
        <ele>1209.95</ele>
        <time>2018-01-30T08:01:25Z</time>
      </trkpt>
      <trkpt lat="42.90379" lon="-0.21032">
        <ele>1213.46</ele>
        <time>2018-01-30T08:01:43Z</time>
      </trkpt>
      <trkpt lat="42.90388" lon="-0.21009">
        <ele>1215.71</ele>
        <time>2018-01-30T08:02:04Z</time>
      </trkpt>
      <trkpt lat="42.90394" lon="-0.20986">
        <ele>1215.76</ele>
        <time>2018-01-30T08:02:25Z</time>
      </trkpt>
      <trkpt lat="42.90405" lon="-0.20963">
        <ele>1215.77</ele>
        <time>2018-01-30T08:02:46Z</time>
      </trkpt>
      <trkpt lat="42.90413" lon="-0.2094">
        <ele>1215.12</ele>
        <time>2018-01-30T08:03:02Z</time>
      </trkpt>
      <trkpt lat="42.90411" lon="-0.20913">
        <ele>1215.76</ele>
        <time>2018-01-30T08:03:22Z</time>
      </trkpt>
      <trkpt lat="42.90416" lon="-0.20889">
        <ele>1215.08</ele>
        <time>2018-01-30T08:03:38Z</time>
      </trkpt>
      <trkpt lat="42.90423" lon="-0.20865">
        <ele>1214.66</ele>
        <time>2018-01-30T08:04:00Z</time>
      </trkpt>
      <trkpt lat="42.90433" lon="-0.20844">
        <ele>1215.36</ele>
        <time>2018-01-30T08:04:20Z</time>
      </trkpt>
      <trkpt lat="42.90435" lon="-0.20819">
        <ele>1215.73</ele>
        <time>2018-01-30T08:04:39Z</time>
      </trkpt>
      <trkpt lat="42.90446" lon="-0.20798">
        <ele>1215.75</ele>
        <time>2018-01-30T08:04:59Z</time>
      </trkpt>
      <trkpt lat="42.90448" lon="-0.20772">
        <ele>1215.6</ele>
        <time>2018-01-30T08:05:13Z</time>
      </trkpt>
      <trkpt lat="42.90446" lon="-0.20748">
        <ele>1216.18</ele>
        <time>2018-01-30T08:05:40Z</time>
      </trkpt>
      <trkpt lat="42.90427" lon="-0.20742">
        <ele>1234.47</ele>
        <time>2018-01-30T08:09:37Z</time>
      </trkpt>
      <trkpt lat="42.90409" lon="-0.20737">
        <ele>1236.32</ele>
        <time>2018-01-30T08:10:00Z</time>
      </trkpt>
      <trkpt lat="42.90392" lon="-0.20744">
        <ele>1242.35</ele>
        <time>2018-01-30T08:10:43Z</time>
      </trkpt>
      <trkpt lat="42.90375" lon="-0.20755">
        <ele>1245.33</ele>
        <time>2018-01-30T08:11:23Z</time>
      </trkpt>
      <trkpt lat="42.90357" lon="-0.20764">
        <ele>1248.64</ele>
        <time>2018-01-30T08:11:54Z</time>
      </trkpt>
      <trkpt lat="42.9034" lon="-0.20752">
        <ele>1253.58</ele>
        <time>2018-01-30T08:12:34Z</time>
      </trkpt>
      <trkpt lat="42.90327" lon="-0.20734">
        <ele>1254.31</ele>
        <time>2018-01-30T08:12:55Z</time>
      </trkpt>
      <trkpt lat="42.90336" lon="-0.20712">
        <ele>1257.58</ele>
        <time>2018-01-30T08:13:21Z</time>
      </trkpt>
      <trkpt lat="42.90318" lon="-0.20707">
        <ele>1264.15</ele>
        <time>2018-01-30T08:13:48Z</time>
      </trkpt>
      <trkpt lat="42.90303" lon="-0.20723">
        <ele>1267.39</ele>
        <time>2018-01-30T08:14:09Z</time>
      </trkpt>
      <trkpt lat="42.90311" lon="-0.20745">
        <ele>1278.37</ele>
        <time>2018-01-30T08:16:23Z</time>
      </trkpt>
      <trkpt lat="42.90296" lon="-0.20761">
        <ele>1292.84</ele>
        <time>2018-01-30T08:17:39Z</time>
      </trkpt>
      <trkpt lat="42.90284" lon="-0.2078">
        <ele>1293.36</ele>
        <time>2018-01-30T08:17:56Z</time>
      </trkpt>
      <trkpt lat="42.90276" lon="-0.20802">
        <ele>1292.57</ele>
        <time>2018-01-30T08:18:11Z</time>
      </trkpt>
      <trkpt lat="42.90271" lon="-0.20777">
        <ele>1290.19</ele>
        <time>2018-01-30T08:19:02Z</time>
      </trkpt>
      <trkpt lat="42.9026" lon="-0.20756">
        <ele>1285.75</ele>
        <time>2018-01-30T08:20:13Z</time>
      </trkpt>
      <trkpt lat="42.90241" lon="-0.20755">
        <ele>1289</ele>
        <time>2018-01-30T08:20:43Z</time>
      </trkpt>
      <trkpt lat="42.90225" lon="-0.20744">
        <ele>1294.62</ele>
        <time>2018-01-30T08:21:24Z</time>
      </trkpt>
      <trkpt lat="42.90213" lon="-0.20724">
        <ele>1298.19</ele>
        <time>2018-01-30T08:21:44Z</time>
      </trkpt>
      <trkpt lat="42.90204" lon="-0.20703">
        <ele>1300.25</ele>
        <time>2018-01-30T08:22:11Z</time>
      </trkpt>
      <trkpt lat="42.90193" lon="-0.20682">
        <ele>1303.06</ele>
        <time>2018-01-30T08:22:38Z</time>
      </trkpt>
      <trkpt lat="42.90185" lon="-0.20659">
        <ele>1305.87</ele>
        <time>2018-01-30T08:23:02Z</time>
      </trkpt>
      <trkpt lat="42.90175" lon="-0.20637">
        <ele>1306.16</ele>
        <time>2018-01-30T08:23:23Z</time>
      </trkpt>
      <trkpt lat="42.90165" lon="-0.20617">
        <ele>1311.52</ele>
        <time>2018-01-30T08:24:08Z</time>
      </trkpt>
      <trkpt lat="42.90151" lon="-0.206">
        <ele>1321.38</ele>
        <time>2018-01-30T08:24:50Z</time>
      </trkpt>
      <trkpt lat="42.90137" lon="-0.20583">
        <ele>1324.49</ele>
        <time>2018-01-30T08:25:10Z</time>
      </trkpt>
      <trkpt lat="42.90126" lon="-0.20563">
        <ele>1332.7</ele>
        <time>2018-01-30T08:25:49Z</time>
      </trkpt>
      <trkpt lat="42.90112" lon="-0.20546">
        <ele>1346.38</ele>
        <time>2018-01-30T08:27:17Z</time>
      </trkpt>
      <trkpt lat="42.90094" lon="-0.2054">
        <ele>1352.96</ele>
        <time>2018-01-30T08:27:53Z</time>
      </trkpt>
      <trkpt lat="42.90075" lon="-0.20542">
        <ele>1361.77</ele>
        <time>2018-01-30T08:28:42Z</time>
      </trkpt>
      <trkpt lat="42.90058" lon="-0.20552">
        <ele>1380.16</ele>
        <time>2018-01-30T08:30:35Z</time>
      </trkpt>
      <trkpt lat="42.90039" lon="-0.20551">
        <ele>1386.2</ele>
        <time>2018-01-30T08:32:09Z</time>
      </trkpt>
      <trkpt lat="42.90026" lon="-0.20533">
        <ele>1390.49</ele>
        <time>2018-01-30T08:33:08Z</time>
      </trkpt>
      <trkpt lat="42.90012" lon="-0.20518">
        <ele>1393.22</ele>
        <time>2018-01-30T08:33:59Z</time>
      </trkpt>
      <trkpt lat="42.89994" lon="-0.2052">
        <ele>1402.03</ele>
        <time>2018-01-30T08:35:14Z</time>
      </trkpt>
      <trkpt lat="42.89975" lon="-0.20521">
        <ele>1404.84</ele>
        <time>2018-01-30T08:35:39Z</time>
      </trkpt>
      <trkpt lat="42.89959" lon="-0.20508">
        <ele>1407.65</ele>
        <time>2018-01-30T08:36:47Z</time>
      </trkpt>
      <trkpt lat="42.89941" lon="-0.20511">
        <ele>1410.38</ele>
        <time>2018-01-30T08:46:12Z</time>
      </trkpt>
      <trkpt lat="42.89925" lon="-0.20499">
        <ele>1412.53</ele>
        <time>2018-01-30T08:46:32Z</time>
      </trkpt>
      <trkpt lat="42.89909" lon="-0.20489">
        <ele>1415.45</ele>
        <time>2018-01-30T08:46:53Z</time>
      </trkpt>
      <trkpt lat="42.89893" lon="-0.20477">
        <ele>1419.58</ele>
        <time>2018-01-30T08:47:23Z</time>
      </trkpt>
      <trkpt lat="42.89874" lon="-0.20477">
        <ele>1422.85</ele>
        <time>2018-01-30T08:47:49Z</time>
      </trkpt>
      <trkpt lat="42.89856" lon="-0.20479">
        <ele>1425.6</ele>
        <time>2018-01-30T08:48:20Z</time>
      </trkpt>
      <trkpt lat="42.89841" lon="-0.20464">
        <ele>1427.61</ele>
        <time>2018-01-30T08:48:52Z</time>
      </trkpt>
      <trkpt lat="42.89832" lon="-0.20443">
        <ele>1430.57</ele>
        <time>2018-01-30T08:49:28Z</time>
      </trkpt>
      <trkpt lat="42.89816" lon="-0.20457">
        <ele>1431.85</ele>
        <time>2018-01-30T08:49:43Z</time>
      </trkpt>
      <trkpt lat="42.8981" lon="-0.2048">
        <ele>1433.08</ele>
        <time>2018-01-30T08:49:59Z</time>
      </trkpt>
      <trkpt lat="42.89808" lon="-0.20506">
        <ele>1435.03</ele>
        <time>2018-01-30T08:50:35Z</time>
      </trkpt>
      <trkpt lat="42.89805" lon="-0.20531">
        <ele>1436.45</ele>
        <time>2018-01-30T08:50:50Z</time>
      </trkpt>
      <trkpt lat="42.89804" lon="-0.20555">
        <ele>1438.85</ele>
        <time>2018-01-30T08:51:06Z</time>
      </trkpt>
      <trkpt lat="42.89804" lon="-0.20581">
        <ele>1441.06</ele>
        <time>2018-01-30T08:51:22Z</time>
      </trkpt>
      <trkpt lat="42.89808" lon="-0.20605">
        <ele>1442.49</ele>
        <time>2018-01-30T08:51:40Z</time>
      </trkpt>
      <trkpt lat="42.8981" lon="-0.2063">
        <ele>1443.44</ele>
        <time>2018-01-30T08:51:58Z</time>
      </trkpt>
      <trkpt lat="42.89811" lon="-0.20655">
        <ele>1444.3</ele>
        <time>2018-01-30T08:52:13Z</time>
      </trkpt>
      <trkpt lat="42.89798" lon="-0.20675">
        <ele>1445.72</ele>
        <time>2018-01-30T08:52:28Z</time>
      </trkpt>
      <trkpt lat="42.8978" lon="-0.20667">
        <ele>1448.85</ele>
        <time>2018-01-30T08:52:50Z</time>
      </trkpt>
      <trkpt lat="42.89762" lon="-0.20658">
        <ele>1451.69</ele>
        <time>2018-01-30T08:53:12Z</time>
      </trkpt>
      <trkpt lat="42.89745" lon="-0.2065">
        <ele>1453.88</ele>
        <time>2018-01-30T08:53:31Z</time>
      </trkpt>
      <trkpt lat="42.89729" lon="-0.20636">
        <ele>1456.29</ele>
        <time>2018-01-30T08:53:49Z</time>
      </trkpt>
      <trkpt lat="42.89712" lon="-0.20626">
        <ele>1458.61</ele>
        <time>2018-01-30T08:54:07Z</time>
      </trkpt>
      <trkpt lat="42.89696" lon="-0.20613">
        <ele>1461.38</ele>
        <time>2018-01-30T08:54:29Z</time>
      </trkpt>
      <trkpt lat="42.8968" lon="-0.20601">
        <ele>1463.76</ele>
        <time>2018-01-30T08:54:51Z</time>
      </trkpt>
      <trkpt lat="42.89663" lon="-0.2059">
        <ele>1466.03</ele>
        <time>2018-01-30T08:55:16Z</time>
      </trkpt>
      <trkpt lat="42.89648" lon="-0.20577">
        <ele>1467.61</ele>
        <time>2018-01-30T08:55:38Z</time>
      </trkpt>
      <trkpt lat="42.89631" lon="-0.20567">
        <ele>1469.77</ele>
        <time>2018-01-30T08:56:03Z</time>
      </trkpt>
      <trkpt lat="42.89614" lon="-0.20556">
        <ele>1471.51</ele>
        <time>2018-01-30T08:56:24Z</time>
      </trkpt>
      <trkpt lat="42.89596" lon="-0.20554">
        <ele>1473.81</ele>
        <time>2018-01-30T08:56:46Z</time>
      </trkpt>
      <trkpt lat="42.89578" lon="-0.2055">
        <ele>1474.81</ele>
        <time>2018-01-30T08:57:09Z</time>
      </trkpt>
      <trkpt lat="42.89561" lon="-0.20543">
        <ele>1475.81</ele>
        <time>2018-01-30T08:57:30Z</time>
      </trkpt>
      <trkpt lat="42.89542" lon="-0.20542">
        <ele>1477.71</ele>
        <time>2018-01-30T08:57:50Z</time>
      </trkpt>
      <trkpt lat="42.89525" lon="-0.20535">
        <ele>1479.77</ele>
        <time>2018-01-30T08:58:10Z</time>
      </trkpt>
      <trkpt lat="42.8951" lon="-0.20521">
        <ele>1481.83</ele>
        <time>2018-01-30T08:58:42Z</time>
      </trkpt>
      <trkpt lat="42.89491" lon="-0.20519">
        <ele>1483.24</ele>
        <time>2018-01-30T08:59:01Z</time>
      </trkpt>
      <trkpt lat="42.89473" lon="-0.20523">
        <ele>1485.36</ele>
        <time>2018-01-30T08:59:20Z</time>
      </trkpt>
      <trkpt lat="42.89454" lon="-0.20521">
        <ele>1487.26</ele>
        <time>2018-01-30T08:59:43Z</time>
      </trkpt>
      <trkpt lat="42.8944" lon="-0.20506">
        <ele>1487.11</ele>
        <time>2018-01-30T09:00:02Z</time>
      </trkpt>
      <trkpt lat="42.89427" lon="-0.20489">
        <ele>1487.24</ele>
        <time>2018-01-30T09:00:43Z</time>
      </trkpt>
      <trkpt lat="42.89408" lon="-0.20489">
        <ele>1488.78</ele>
        <time>2018-01-30T09:01:04Z</time>
      </trkpt>
      <trkpt lat="42.89404" lon="-0.20513">
        <ele>1494.86</ele>
        <time>2018-01-30T09:04:34Z</time>
      </trkpt>
      <trkpt lat="42.89398" lon="-0.20536">
        <ele>1495.84</ele>
        <time>2018-01-30T09:04:55Z</time>
      </trkpt>
      <trkpt lat="42.89381" lon="-0.20546">
        <ele>1496.22</ele>
        <time>2018-01-30T09:05:24Z</time>
      </trkpt>
      <trkpt lat="42.89365" lon="-0.20558">
        <ele>1496.43</ele>
        <time>2018-01-30T09:05:54Z</time>
      </trkpt>
      <trkpt lat="42.89347" lon="-0.20566">
        <ele>1497.3</ele>
        <time>2018-01-30T09:06:14Z</time>
      </trkpt>
      <trkpt lat="42.89332" lon="-0.20579">
        <ele>1502.45</ele>
        <time>2018-01-30T09:07:39Z</time>
      </trkpt>
      <trkpt lat="42.89317" lon="-0.20594">
        <ele>1510.71</ele>
        <time>2018-01-30T09:09:04Z</time>
      </trkpt>
      <trkpt lat="42.89299" lon="-0.20594">
        <ele>1519.79</ele>
        <time>2018-01-30T09:10:33Z</time>
      </trkpt>
      <trkpt lat="42.89297" lon="-0.20619">
        <ele>1526.06</ele>
        <time>2018-01-30T09:11:54Z</time>
      </trkpt>
      <trkpt lat="42.89292" lon="-0.20644">
        <ele>1538.71</ele>
        <time>2018-01-30T09:13:30Z</time>
      </trkpt>
      <trkpt lat="42.89276" lon="-0.20654">
        <ele>1548.36</ele>
        <time>2018-01-30T09:15:03Z</time>
      </trkpt>
      <trkpt lat="42.89269" lon="-0.20677">
        <ele>1565.54</ele>
        <time>2018-01-30T09:17:31Z</time>
      </trkpt>
      <trkpt lat="42.89286" lon="-0.20683">
        <ele>1572.77</ele>
        <time>2018-01-30T09:18:37Z</time>
      </trkpt>
      <trkpt lat="42.89297" lon="-0.20703">
        <ele>1574.37</ele>
        <time>2018-01-30T09:19:14Z</time>
      </trkpt>
      <trkpt lat="42.89282" lon="-0.20718">
        <ele>1575.95</ele>
        <time>2018-01-30T09:19:56Z</time>
      </trkpt>
      <trkpt lat="42.89278" lon="-0.20743">
        <ele>1577.38</ele>
        <time>2018-01-30T09:20:28Z</time>
      </trkpt>
      <trkpt lat="42.89284" lon="-0.20767">
        <ele>1579.6</ele>
        <time>2018-01-30T09:21:00Z</time>
      </trkpt>
      <trkpt lat="42.89289" lon="-0.20791">
        <ele>1583.31</ele>
        <time>2018-01-30T09:21:34Z</time>
      </trkpt>
      <trkpt lat="42.89285" lon="-0.20815">
        <ele>1590.81</ele>
        <time>2018-01-30T09:23:11Z</time>
      </trkpt>
      <trkpt lat="42.89283" lon="-0.2084">
        <ele>1600.58</ele>
        <time>2018-01-30T09:27:00Z</time>
      </trkpt>
      <trkpt lat="42.89264" lon="-0.20835">
        <ele>1602.73</ele>
        <time>2018-01-30T09:27:41Z</time>
      </trkpt>
      <trkpt lat="42.89247" lon="-0.20824">
        <ele>1600.36</ele>
        <time>2018-01-30T09:28:11Z</time>
      </trkpt>
      <trkpt lat="42.89251" lon="-0.20849">
        <ele>1608.32</ele>
        <time>2018-01-30T09:28:54Z</time>
      </trkpt>
      <trkpt lat="42.89232" lon="-0.20853">
        <ele>1612</ele>
        <time>2018-01-30T09:30:01Z</time>
      </trkpt>
      <trkpt lat="42.89235" lon="-0.20878">
        <ele>1617.91</ele>
        <time>2018-01-30T09:30:43Z</time>
      </trkpt>
      <trkpt lat="42.89217" lon="-0.20876">
        <ele>1625.74</ele>
        <time>2018-01-30T09:32:06Z</time>
      </trkpt>
      <trkpt lat="42.89219" lon="-0.20901">
        <ele>1635.4</ele>
        <time>2018-01-30T09:32:57Z</time>
      </trkpt>
      <trkpt lat="42.89224" lon="-0.20925">
        <ele>1647.51</ele>
        <time>2018-01-30T09:34:26Z</time>
      </trkpt>
      <trkpt lat="42.8921" lon="-0.20942">
        <ele>1654.26</ele>
        <time>2018-01-30T09:37:22Z</time>
      </trkpt>
      <trkpt lat="42.89192" lon="-0.20945">
        <ele>1661.48</ele>
        <time>2018-01-30T09:39:14Z</time>
      </trkpt>
      <trkpt lat="42.8918" lon="-0.20964">
        <ele>1678.35</ele>
        <time>2018-01-30T09:41:59Z</time>
      </trkpt>
      <trkpt lat="42.89163" lon="-0.20956">
        <ele>1687.06</ele>
        <time>2018-01-30T09:43:34Z</time>
      </trkpt>
      <trkpt lat="42.8916" lon="-0.20981">
        <ele>1690.23</ele>
        <time>2018-01-30T09:44:21Z</time>
      </trkpt>
      <trkpt lat="42.89144" lon="-0.20993">
        <ele>1697.15</ele>
        <time>2018-01-30T09:45:58Z</time>
      </trkpt>
      <trkpt lat="42.89134" lon="-0.21014">
        <ele>1698.82</ele>
        <time>2018-01-30T09:46:17Z</time>
      </trkpt>
      <trkpt lat="42.89116" lon="-0.21006">
        <ele>1711.06</ele>
        <time>2018-01-30T09:48:07Z</time>
      </trkpt>
      <trkpt lat="42.89104" lon="-0.21027">
        <ele>1715.02</ele>
        <time>2018-01-30T09:48:30Z</time>
      </trkpt>
      <trkpt lat="42.89087" lon="-0.21019">
        <ele>1721.88</ele>
        <time>2018-01-30T09:49:49Z</time>
      </trkpt>
      <trkpt lat="42.89074" lon="-0.21002">
        <ele>1721.25</ele>
        <time>2018-01-30T09:50:04Z</time>
      </trkpt>
      <trkpt lat="42.89062" lon="-0.20982">
        <ele>1721.87</ele>
        <time>2018-01-30T09:50:30Z</time>
      </trkpt>
      <trkpt lat="42.8905" lon="-0.20962">
        <ele>1722.94</ele>
        <time>2018-01-30T09:50:48Z</time>
      </trkpt>
      <trkpt lat="42.89033" lon="-0.20952">
        <ele>1726.43</ele>
        <time>2018-01-30T09:51:14Z</time>
      </trkpt>
      <trkpt lat="42.89027" lon="-0.20929">
        <ele>1730.36</ele>
        <time>2018-01-30T09:51:39Z</time>
      </trkpt>
      <trkpt lat="42.89024" lon="-0.20904">
        <ele>1735.3</ele>
        <time>2018-01-30T09:52:03Z</time>
      </trkpt>
      <trkpt lat="42.89007" lon="-0.20895">
        <ele>1744.15</ele>
        <time>2018-01-30T09:52:44Z</time>
      </trkpt>
      <trkpt lat="42.88988" lon="-0.20893">
        <ele>1753.31</ele>
        <time>2018-01-30T09:53:48Z</time>
      </trkpt>
      <trkpt lat="42.88979" lon="-0.20872">
        <ele>1760.26</ele>
        <time>2018-01-30T09:54:21Z</time>
      </trkpt>
      <trkpt lat="42.88963" lon="-0.20859">
        <ele>1769.01</ele>
        <time>2018-01-30T09:55:16Z</time>
      </trkpt>
      <trkpt lat="42.88952" lon="-0.20883">
        <ele>1773.46</ele>
        <time>2018-01-30T09:55:55Z</time>
      </trkpt>
      <trkpt lat="42.88937" lon="-0.20867">
        <ele>1785.61</ele>
        <time>2018-01-30T09:57:52Z</time>
      </trkpt>
      <trkpt lat="42.88925" lon="-0.20886">
        <ele>1790.22</ele>
        <time>2018-01-30T09:58:26Z</time>
      </trkpt>
      <trkpt lat="42.8892" lon="-0.2091">
        <ele>1792.2</ele>
        <time>2018-01-30T09:58:47Z</time>
      </trkpt>
      <trkpt lat="42.88915" lon="-0.20934">
        <ele>1795.45</ele>
        <time>2018-01-30T09:59:13Z</time>
      </trkpt>
      <trkpt lat="42.88904" lon="-0.20953">
        <ele>1804.63</ele>
        <time>2018-01-30T09:59:49Z</time>
      </trkpt>
      <trkpt lat="42.88885" lon="-0.2096">
        <ele>1814.21</ele>
        <time>2018-01-30T10:00:38Z</time>
      </trkpt>
      <trkpt lat="42.88868" lon="-0.20953">
        <ele>1819.76</ele>
        <time>2018-01-30T10:01:01Z</time>
      </trkpt>
      <trkpt lat="42.88862" lon="-0.20977">
        <ele>1823.42</ele>
        <time>2018-01-30T10:01:42Z</time>
      </trkpt>
      <trkpt lat="42.88849" lon="-0.20996">
        <ele>1828.88</ele>
        <time>2018-01-30T10:03:08Z</time>
      </trkpt>
      <trkpt lat="42.88832" lon="-0.20985">
        <ele>1832.44</ele>
        <time>2018-01-30T10:03:39Z</time>
      </trkpt>
      <trkpt lat="42.88818" lon="-0.20968">
        <ele>1838.78</ele>
        <time>2018-01-30T10:04:28Z</time>
      </trkpt>
      <trkpt lat="42.88812" lon="-0.20945">
        <ele>1844.07</ele>
        <time>2018-01-30T10:05:05Z</time>
      </trkpt>
      <trkpt lat="42.88794" lon="-0.20941">
        <ele>1862.95</ele>
        <time>2018-01-30T10:17:47Z</time>
      </trkpt>
      <trkpt lat="42.88779" lon="-0.20955">
        <ele>1861.65</ele>
        <time>2018-01-30T10:18:01Z</time>
      </trkpt>
      <trkpt lat="42.88772" lon="-0.2098">
        <ele>1858.26</ele>
        <time>2018-01-30T10:18:26Z</time>
      </trkpt>
      <trkpt lat="42.88758" lon="-0.20994">
        <ele>1855.19</ele>
        <time>2018-01-30T10:19:06Z</time>
      </trkpt>
      <trkpt lat="42.88741" lon="-0.20984">
        <ele>1855.51</ele>
        <time>2018-01-30T10:19:39Z</time>
      </trkpt>
      <trkpt lat="42.88724" lon="-0.20977">
        <ele>1857.48</ele>
        <time>2018-01-30T10:20:13Z</time>
      </trkpt>
      <trkpt lat="42.88717" lon="-0.20999">
        <ele>1859.82</ele>
        <time>2018-01-30T10:20:48Z</time>
      </trkpt>
      <trkpt lat="42.887" lon="-0.21009">
        <ele>1862.29</ele>
        <time>2018-01-30T10:22:01Z</time>
      </trkpt>
      <trkpt lat="42.88686" lon="-0.20993">
        <ele>1861.05</ele>
        <time>2018-01-30T10:22:26Z</time>
      </trkpt>
      <trkpt lat="42.88669" lon="-0.20981">
        <ele>1861.63</ele>
        <time>2018-01-30T10:23:00Z</time>
      </trkpt>
      <trkpt lat="42.88651" lon="-0.20977">
        <ele>1863.93</ele>
        <time>2018-01-30T10:23:22Z</time>
      </trkpt>
      <trkpt lat="42.88633" lon="-0.20979">
        <ele>1868.96</ele>
        <time>2018-01-30T10:23:48Z</time>
      </trkpt>
      <trkpt lat="42.88617" lon="-0.2099">
        <ele>1874.48</ele>
        <time>2018-01-30T10:24:13Z</time>
      </trkpt>
      <trkpt lat="42.886" lon="-0.20998">
        <ele>1881.2</ele>
        <time>2018-01-30T10:24:41Z</time>
      </trkpt>
      <trkpt lat="42.88582" lon="-0.20996">
        <ele>1885.53</ele>
        <time>2018-01-30T10:25:02Z</time>
      </trkpt>
      <trkpt lat="42.88563" lon="-0.20994">
        <ele>1891.58</ele>
        <time>2018-01-30T10:25:29Z</time>
      </trkpt>
      <trkpt lat="42.88545" lon="-0.20993">
        <ele>1899.07</ele>
        <time>2018-01-30T10:26:01Z</time>
      </trkpt>
      <trkpt lat="42.88526" lon="-0.20989">
        <ele>1903.82</ele>
        <time>2018-01-30T10:26:31Z</time>
      </trkpt>
      <trkpt lat="42.88508" lon="-0.20993">
        <ele>1916.17</ele>
        <time>2018-01-30T10:27:44Z</time>
      </trkpt>
      <trkpt lat="42.88503" lon="-0.21018">
        <ele>1920.22</ele>
        <time>2018-01-30T10:28:17Z</time>
      </trkpt>
      <trkpt lat="42.88487" lon="-0.21007">
        <ele>1926.81</ele>
        <time>2018-01-30T10:28:50Z</time>
      </trkpt>
      <trkpt lat="42.88469" lon="-0.20999">
        <ele>1941.23</ele>
        <time>2018-01-30T10:29:58Z</time>
      </trkpt>
      <trkpt lat="42.8845" lon="-0.21003">
        <ele>1952.74</ele>
        <time>2018-01-30T10:31:15Z</time>
      </trkpt>
      <trkpt lat="42.88434" lon="-0.21015">
        <ele>1961.21</ele>
        <time>2018-01-30T10:32:13Z</time>
      </trkpt>
      <trkpt lat="42.88433" lon="-0.2104">
        <ele>1968.11</ele>
        <time>2018-01-30T10:33:04Z</time>
      </trkpt>
      <trkpt lat="42.88415" lon="-0.21036">
        <ele>1970.58</ele>
        <time>2018-01-30T10:33:38Z</time>
      </trkpt>
      <trkpt lat="42.88397" lon="-0.21031">
        <ele>1975.12</ele>
        <time>2018-01-30T10:34:05Z</time>
      </trkpt>
      <trkpt lat="42.88394" lon="-0.21056">
        <ele>1979.67</ele>
        <time>2018-01-30T10:34:32Z</time>
      </trkpt>
      <trkpt lat="42.88376" lon="-0.21063">
        <ele>1985.06</ele>
        <time>2018-01-30T10:34:58Z</time>
      </trkpt>
      <trkpt lat="42.88361" lon="-0.21076">
        <ele>1994.21</ele>
        <time>2018-01-30T10:36:00Z</time>
      </trkpt>
      <trkpt lat="42.88342" lon="-0.21077">
        <ele>1999.43</ele>
        <time>2018-01-30T10:36:47Z</time>
      </trkpt>
      <trkpt lat="42.88324" lon="-0.21079">
        <ele>2004.75</ele>
        <time>2018-01-30T10:37:23Z</time>
      </trkpt>
      <trkpt lat="42.88307" lon="-0.2109">
        <ele>2010.11</ele>
        <time>2018-01-30T10:38:00Z</time>
      </trkpt>
      <trkpt lat="42.88289" lon="-0.21096">
        <ele>2017.5</ele>
        <time>2018-01-30T10:38:34Z</time>
      </trkpt>
      <trkpt lat="42.8827" lon="-0.21101">
        <ele>2030.63</ele>
        <time>2018-01-30T10:39:37Z</time>
      </trkpt>
      <trkpt lat="42.88276" lon="-0.21124">
        <ele>2036.28</ele>
        <time>2018-01-30T10:40:26Z</time>
      </trkpt>
      <trkpt lat="42.88291" lon="-0.21137">
        <ele>2035.13</ele>
        <time>2018-01-30T10:40:58Z</time>
      </trkpt>
      <trkpt lat="42.88272" lon="-0.21138">
        <ele>2044.14</ele>
        <time>2018-01-30T10:41:51Z</time>
      </trkpt>
      <trkpt lat="42.88254" lon="-0.2114">
        <ele>2047.02</ele>
        <time>2018-01-30T10:42:24Z</time>
      </trkpt>
      <trkpt lat="42.88249" lon="-0.21164">
        <ele>2045.28</ele>
        <time>2018-01-30T10:43:09Z</time>
      </trkpt>
      <trkpt lat="42.88243" lon="-0.21187">
        <ele>2052.3</ele>
        <time>2018-01-30T10:46:02Z</time>
      </trkpt>
      <trkpt lat="42.88225" lon="-0.2118">
        <ele>2064.66</ele>
        <time>2018-01-30T10:50:31Z</time>
      </trkpt>
      <trkpt lat="42.88207" lon="-0.21181">
        <ele>2072.27</ele>
        <time>2018-01-30T10:50:52Z</time>
      </trkpt>
      <trkpt lat="42.8819" lon="-0.21185">
        <ele>2076.83</ele>
        <time>2018-01-30T10:51:21Z</time>
      </trkpt>
      <trkpt lat="42.88172" lon="-0.2118">
        <ele>2084.13</ele>
        <time>2018-01-30T10:51:56Z</time>
      </trkpt>
      <trkpt lat="42.88154" lon="-0.21179">
        <ele>2087.77</ele>
        <time>2018-01-30T10:52:22Z</time>
      </trkpt>
      <trkpt lat="42.88136" lon="-0.2117">
        <ele>2090.15</ele>
        <time>2018-01-30T10:52:51Z</time>
      </trkpt>
      <trkpt lat="42.88117" lon="-0.2117">
        <ele>2087.83</ele>
        <time>2018-01-30T10:53:14Z</time>
      </trkpt>
      <trkpt lat="42.88097" lon="-0.21157">
        <ele>2086.47</ele>
        <time>2018-01-30T10:53:36Z</time>
      </trkpt>
      <trkpt lat="42.88079" lon="-0.21157">
        <ele>2084.71</ele>
        <time>2018-01-30T10:54:16Z</time>
      </trkpt>
      <trkpt lat="42.88063" lon="-0.21146">
        <ele>2088.76</ele>
        <time>2018-01-30T10:54:51Z</time>
      </trkpt>
      <trkpt lat="42.88051" lon="-0.21127">
        <ele>2092.84</ele>
        <time>2018-01-30T10:55:12Z</time>
      </trkpt>
      <trkpt lat="42.88035" lon="-0.21142">
        <ele>2101.03</ele>
        <time>2018-01-30T10:55:56Z</time>
      </trkpt>
      <trkpt lat="42.8802" lon="-0.21155">
        <ele>2108.6</ele>
        <time>2018-01-30T10:56:24Z</time>
      </trkpt>
      <trkpt lat="42.88006" lon="-0.2117">
        <ele>2117.97</ele>
        <time>2018-01-30T10:56:57Z</time>
      </trkpt>
      <trkpt lat="42.87994" lon="-0.21189">
        <ele>2118.48</ele>
        <time>2018-01-30T10:57:09Z</time>
      </trkpt>
      <trkpt lat="42.87983" lon="-0.21213">
        <ele>2114.5</ele>
        <time>2018-01-30T10:57:38Z</time>
      </trkpt>
      <trkpt lat="42.87985" lon="-0.21185">
        <ele>2110.43</ele>
        <time>2018-01-30T10:58:13Z</time>
      </trkpt>
      <trkpt lat="42.87975" lon="-0.21162">
        <ele>2109.3</ele>
        <time>2018-01-30T10:58:34Z</time>
      </trkpt>
      <trkpt lat="42.87993" lon="-0.21165">
        <ele>2115.49</ele>
        <time>2018-01-30T10:59:24Z</time>
      </trkpt>
      <trkpt lat="42.87974" lon="-0.21139">
        <ele>2116.15</ele>
        <time>2018-01-30T10:59:30Z</time>
      </trkpt>
      <trkpt lat="42.87965" lon="-0.21166">
        <ele>2116.43</ele>
        <time>2018-01-30T10:59:38Z</time>
      </trkpt>
      <trkpt lat="42.8795" lon="-0.21189">
        <ele>2116.63</ele>
        <time>2018-01-30T10:59:43Z</time>
      </trkpt>
      <trkpt lat="42.87964" lon="-0.21169">
        <ele>2116.74</ele>
        <time>2018-01-30T10:59:45Z</time>
      </trkpt>
      <trkpt lat="42.87953" lon="-0.21193">
        <ele>2116.94</ele>
        <time>2018-01-30T10:59:56Z</time>
      </trkpt>
      <trkpt lat="42.87941" lon="-0.21212">
        <ele>2117.7</ele>
        <time>2018-01-30T11:00:38Z</time>
      </trkpt>
      <trkpt lat="42.87927" lon="-0.21227">
        <ele>2117.66</ele>
        <time>2018-01-30T11:01:03Z</time>
      </trkpt>
      <trkpt lat="42.87946" lon="-0.21222">
        <ele>2103.14</ele>
        <time>2018-01-30T11:03:31Z</time>
      </trkpt>
      <trkpt lat="42.87956" lon="-0.21197">
        <ele>2109.74</ele>
        <time>2018-01-30T11:04:43Z</time>
      </trkpt>
      <trkpt lat="42.87949" lon="-0.2122">
        <ele>2124.96</ele>
        <time>2018-01-30T11:06:24Z</time>
      </trkpt>
      <trkpt lat="42.87941" lon="-0.21196">
        <ele>2131.55</ele>
        <time>2018-01-30T11:06:49Z</time>
      </trkpt>
      <trkpt lat="42.87939" lon="-0.21221">
        <ele>2138.29</ele>
        <time>2018-01-30T11:07:20Z</time>
      </trkpt>
      <trkpt lat="42.8793" lon="-0.21243">
        <ele>2142.78</ele>
        <time>2018-01-30T11:07:48Z</time>
      </trkpt>
      <trkpt lat="42.87918" lon="-0.21223">
        <ele>2147.82</ele>
        <time>2018-01-30T11:08:05Z</time>
      </trkpt>
      <trkpt lat="42.87908" lon="-0.21246">
        <ele>2159.6</ele>
        <time>2018-01-30T11:09:15Z</time>
      </trkpt>
      <trkpt lat="42.87894" lon="-0.21266">
        <ele>2161.85</ele>
        <time>2018-01-30T11:09:25Z</time>
      </trkpt>
      <trkpt lat="42.87907" lon="-0.2125">
        <ele>2165.49</ele>
        <time>2018-01-30T11:10:09Z</time>
      </trkpt>
      <trkpt lat="42.87889" lon="-0.2124">
        <ele>2170.43</ele>
        <time>2018-01-30T11:10:37Z</time>
      </trkpt>
      <trkpt lat="42.87876" lon="-0.21224">
        <ele>2176.11</ele>
        <time>2018-01-30T11:11:55Z</time>
      </trkpt>
      <trkpt lat="42.87864" lon="-0.21204">
        <ele>2186.27</ele>
        <time>2018-01-30T11:15:42Z</time>
      </trkpt>
      <trkpt lat="42.87873" lon="-0.21225">
        <ele>2193.22</ele>
        <time>2018-01-30T11:17:16Z</time>
      </trkpt>
      <trkpt lat="42.87871" lon="-0.2125">
        <ele>2197.04</ele>
        <time>2018-01-30T11:19:10Z</time>
      </trkpt>
      <trkpt lat="42.87875" lon="-0.21274">
        <ele>2212.7</ele>
        <time>2018-01-30T11:20:19Z</time>
      </trkpt>
      <trkpt lat="42.87862" lon="-0.21254">
        <ele>2214.74</ele>
        <time>2018-01-30T11:20:41Z</time>
      </trkpt>
      <trkpt lat="42.87859" lon="-0.2123">
        <ele>2215.2</ele>
        <time>2018-01-30T11:21:01Z</time>
      </trkpt>
      <trkpt lat="42.87863" lon="-0.21257">
        <ele>2216.23</ele>
        <time>2018-01-30T11:21:39Z</time>
      </trkpt>
      <trkpt lat="42.87864" lon="-0.21283">
        <ele>2225.61</ele>
        <time>2018-01-30T11:22:05Z</time>
      </trkpt>
      <trkpt lat="42.87861" lon="-0.21258">
        <ele>2230.56</ele>
        <time>2018-01-30T11:22:20Z</time>
      </trkpt>
      <trkpt lat="42.87859" lon="-0.21233">
        <ele>2231.64</ele>
        <time>2018-01-30T11:22:56Z</time>
      </trkpt>
      <trkpt lat="42.87861" lon="-0.21258">
        <ele>2229.73</ele>
        <time>2018-01-30T11:23:38Z</time>
      </trkpt>
      <trkpt lat="42.87849" lon="-0.21239">
        <ele>2233.72</ele>
        <time>2018-01-30T11:25:44Z</time>
      </trkpt>
      <trkpt lat="42.87851" lon="-0.21263">
        <ele>2236.7</ele>
        <time>2018-01-30T11:25:57Z</time>
      </trkpt>
      <trkpt lat="42.87854" lon="-0.2129">
        <ele>2241.99</ele>
        <time>2018-01-30T11:26:38Z</time>
      </trkpt>
      <trkpt lat="42.87836" lon="-0.21275">
        <ele>2249.05</ele>
        <time>2018-01-30T11:27:18Z</time>
      </trkpt>
      <trkpt lat="42.87831" lon="-0.2125">
        <ele>2251.32</ele>
        <time>2018-01-30T11:27:44Z</time>
      </trkpt>
      <trkpt lat="42.87834" lon="-0.21275">
        <ele>2252.8</ele>
        <time>2018-01-30T11:28:12Z</time>
      </trkpt>
      <trkpt lat="42.87836" lon="-0.21302">
        <ele>2254.64</ele>
        <time>2018-01-30T11:28:42Z</time>
      </trkpt>
      <trkpt lat="42.87836" lon="-0.21277">
        <ele>2267.03</ele>
        <time>2018-01-30T11:30:15Z</time>
      </trkpt>
      <trkpt lat="42.87818" lon="-0.21283">
        <ele>2272.46</ele>
        <time>2018-01-30T11:31:47Z</time>
      </trkpt>
      <trkpt lat="42.87803" lon="-0.21269">
        <ele>2273.81</ele>
        <time>2018-01-30T11:34:28Z</time>
      </trkpt>
      <trkpt lat="42.8781" lon="-0.21292">
        <ele>2274.03</ele>
        <time>2018-01-30T11:34:59Z</time>
      </trkpt>
      <trkpt lat="42.87823" lon="-0.21311">
        <ele>2275.03</ele>
        <time>2018-01-30T11:35:22Z</time>
      </trkpt>
      <trkpt lat="42.87804" lon="-0.21307">
        <ele>2287.37</ele>
        <time>2018-01-30T11:36:34Z</time>
      </trkpt>
      <trkpt lat="42.87818" lon="-0.21326">
        <ele>2292.33</ele>
        <time>2018-01-30T11:38:15Z</time>
      </trkpt>
      <trkpt lat="42.87801" lon="-0.21321">
        <ele>2290.48</ele>
        <time>2018-01-30T11:40:10Z</time>
      </trkpt>
      <trkpt lat="42.87789" lon="-0.21302">
        <ele>2282.75</ele>
        <time>2018-01-30T11:40:47Z</time>
      </trkpt>
      <trkpt lat="42.87795" lon="-0.21326">
        <ele>2293.35</ele>
        <time>2018-01-30T11:42:18Z</time>
      </trkpt>
      <trkpt lat="42.87789" lon="-0.21302">
        <ele>2299.59</ele>
        <time>2018-01-30T11:42:52Z</time>
      </trkpt>
      <trkpt lat="42.87787" lon="-0.21327">
        <ele>2301.26</ele>
        <time>2018-01-30T11:43:59Z</time>
      </trkpt>
      <trkpt lat="42.87777" lon="-0.21305">
        <ele>2309.25</ele>
        <time>2018-01-30T11:45:57Z</time>
      </trkpt>
      <trkpt lat="42.87773" lon="-0.2133">
        <ele>2318.46</ele>
        <time>2018-01-30T11:47:36Z</time>
      </trkpt>
      <trkpt lat="42.87771" lon="-0.21354">
        <ele>2321.86</ele>
        <time>2018-01-30T11:49:55Z</time>
      </trkpt>
      <trkpt lat="42.87778" lon="-0.21377">
        <ele>2319.45</ele>
        <time>2018-01-30T11:53:14Z</time>
      </trkpt>
      <trkpt lat="42.87795" lon="-0.21371">
        <ele>2325.79</ele>
        <time>2018-01-30T11:54:51Z</time>
      </trkpt>
      <trkpt lat="42.87779" lon="-0.21382">
        <ele>2336.65</ele>
        <time>2018-01-30T12:03:50Z</time>
      </trkpt>
      <trkpt lat="42.87796" lon="-0.21373">
        <ele>2359</ele>
        <time>2018-01-30T12:34:41Z</time>
      </trkpt>
      <trkpt lat="42.87786" lon="-0.21349">
        <ele>2355.66</ele>
        <time>2018-01-30T12:35:29Z</time>
      </trkpt>
      <trkpt lat="42.87779" lon="-0.21324">
        <ele>2353.21</ele>
        <time>2018-01-30T12:35:34Z</time>
      </trkpt>
      <trkpt lat="42.87792" lon="-0.21306">
        <ele>2335.97</ele>
        <time>2018-01-30T12:52:17Z</time>
      </trkpt>
      <trkpt lat="42.87796" lon="-0.21281">
        <ele>2335.82</ele>
        <time>2018-01-30T12:52:23Z</time>
      </trkpt>
      <trkpt lat="42.87799" lon="-0.21256">
        <ele>2336.36</ele>
        <time>2018-01-30T12:52:28Z</time>
      </trkpt>
      <trkpt lat="42.87805" lon="-0.21232">
        <ele>2335.94</ele>
        <time>2018-01-30T12:52:39Z</time>
      </trkpt>
      <trkpt lat="42.878" lon="-0.21207">
        <ele>2334.81</ele>
        <time>2018-01-30T12:52:46Z</time>
      </trkpt>
      <trkpt lat="42.87817" lon="-0.21191">
        <ele>2306.23</ele>
        <time>2018-01-30T12:52:56Z</time>
      </trkpt>
      <trkpt lat="42.87832" lon="-0.21174">
        <ele>2285.3</ele>
        <time>2018-01-30T12:53:02Z</time>
      </trkpt>
      <trkpt lat="42.87854" lon="-0.21179">
        <ele>2267.77</ele>
        <time>2018-01-30T12:53:08Z</time>
      </trkpt>
      <trkpt lat="42.87874" lon="-0.21181">
        <ele>2256.54</ele>
        <time>2018-01-30T12:53:27Z</time>
      </trkpt>
      <trkpt lat="42.87888" lon="-0.21158">
        <ele>2247.03</ele>
        <time>2018-01-30T12:53:31Z</time>
      </trkpt>
      <trkpt lat="42.87904" lon="-0.21147">
        <ele>2240.71</ele>
        <time>2018-01-30T12:53:55Z</time>
      </trkpt>
      <trkpt lat="42.87917" lon="-0.2113">
        <ele>2237.78</ele>
        <time>2018-01-30T12:54:02Z</time>
      </trkpt>
      <trkpt lat="42.87936" lon="-0.21134">
        <ele>2230.64</ele>
        <time>2018-01-30T12:54:12Z</time>
      </trkpt>
      <trkpt lat="42.87954" lon="-0.21128">
        <ele>2221.71</ele>
        <time>2018-01-30T12:54:20Z</time>
      </trkpt>
      <trkpt lat="42.87975" lon="-0.21131">
        <ele>2211.5</ele>
        <time>2018-01-30T12:54:28Z</time>
      </trkpt>
      <trkpt lat="42.87997" lon="-0.21129">
        <ele>2207.48</ele>
        <time>2018-01-30T12:54:31Z</time>
      </trkpt>
      <trkpt lat="42.88018" lon="-0.21127">
        <ele>2202.03</ele>
        <time>2018-01-30T12:54:35Z</time>
      </trkpt>
      <trkpt lat="42.8805" lon="-0.21138">
        <ele>2172.69</ele>
        <time>2018-01-30T12:54:40Z</time>
      </trkpt>
      <trkpt lat="42.88072" lon="-0.21136">
        <ele>2152.33</ele>
        <time>2018-01-30T12:57:33Z</time>
      </trkpt>
      <trkpt lat="42.88099" lon="-0.21131">
        <ele>2148.48</ele>
        <time>2018-01-30T12:57:38Z</time>
      </trkpt>
      <trkpt lat="42.88117" lon="-0.21146">
        <ele>2142.07</ele>
        <time>2018-01-30T12:57:42Z</time>
      </trkpt>
      <trkpt lat="42.88135" lon="-0.21138">
        <ele>2122.78</ele>
        <time>2018-01-30T12:57:46Z</time>
      </trkpt>
      <trkpt lat="42.88159" lon="-0.21144">
        <ele>2107.07</ele>
        <time>2018-01-30T12:57:51Z</time>
      </trkpt>
      <trkpt lat="42.88178" lon="-0.21154">
        <ele>2103.57</ele>
        <time>2018-01-30T12:57:53Z</time>
      </trkpt>
      <trkpt lat="42.88195" lon="-0.21138">
        <ele>2096.09</ele>
        <time>2018-01-30T12:57:59Z</time>
      </trkpt>
      <trkpt lat="42.88215" lon="-0.21129">
        <ele>2093.38</ele>
        <time>2018-01-30T12:58:05Z</time>
      </trkpt>
      <trkpt lat="42.88234" lon="-0.2113">
        <ele>2089.96</ele>
        <time>2018-01-30T12:58:35Z</time>
      </trkpt>
      <trkpt lat="42.88251" lon="-0.21152">
        <ele>2085.35</ele>
        <time>2018-01-30T12:59:47Z</time>
      </trkpt>
      <trkpt lat="42.8827" lon="-0.21158">
        <ele>2080.32</ele>
        <time>2018-01-30T12:59:51Z</time>
      </trkpt>
      <trkpt lat="42.88288" lon="-0.21151">
        <ele>2078.15</ele>
        <time>2018-01-30T12:59:56Z</time>
      </trkpt>
      <trkpt lat="42.88305" lon="-0.2114">
        <ele>2070.43</ele>
        <time>2018-01-30T13:00:04Z</time>
      </trkpt>
      <trkpt lat="42.88304" lon="-0.21115">
        <ele>2062.04</ele>
        <time>2018-01-30T13:00:11Z</time>
      </trkpt>
      <trkpt lat="42.88314" lon="-0.21094">
        <ele>2057.26</ele>
        <time>2018-01-30T13:00:22Z</time>
      </trkpt>
      <trkpt lat="42.88333" lon="-0.21087">
        <ele>2051.89</ele>
        <time>2018-01-30T13:00:48Z</time>
      </trkpt>
      <trkpt lat="42.88348" lon="-0.21064">
        <ele>2042.32</ele>
        <time>2018-01-30T13:00:55Z</time>
      </trkpt>
      <trkpt lat="42.88367" lon="-0.21053">
        <ele>2038.57</ele>
        <time>2018-01-30T13:01:00Z</time>
      </trkpt>
      <trkpt lat="42.88388" lon="-0.21054">
        <ele>2035.44</ele>
        <time>2018-01-30T13:01:06Z</time>
      </trkpt>
      <trkpt lat="42.88408" lon="-0.21054">
        <ele>2024.27</ele>
        <time>2018-01-30T13:02:31Z</time>
      </trkpt>
      <trkpt lat="42.88422" lon="-0.21037">
        <ele>2020.75</ele>
        <time>2018-01-30T13:02:35Z</time>
      </trkpt>
      <trkpt lat="42.88438" lon="-0.21015">
        <ele>2017.87</ele>
        <time>2018-01-30T13:02:41Z</time>
      </trkpt>
      <trkpt lat="42.88453" lon="-0.20999">
        <ele>2008.51</ele>
        <time>2018-01-30T13:02:46Z</time>
      </trkpt>
      <trkpt lat="42.88475" lon="-0.20982">
        <ele>1995.1</ele>
        <time>2018-01-30T13:02:50Z</time>
      </trkpt>
      <trkpt lat="42.88495" lon="-0.20976">
        <ele>1986.62</ele>
        <time>2018-01-30T13:02:57Z</time>
      </trkpt>
      <trkpt lat="42.88512" lon="-0.2098">
        <ele>1977.04</ele>
        <time>2018-01-30T13:03:00Z</time>
      </trkpt>
      <trkpt lat="42.88527" lon="-0.20997">
        <ele>1970.09</ele>
        <time>2018-01-30T13:03:03Z</time>
      </trkpt>
      <trkpt lat="42.88546" lon="-0.21005">
        <ele>1963.88</ele>
        <time>2018-01-30T13:03:06Z</time>
      </trkpt>
      <trkpt lat="42.88564" lon="-0.21006">
        <ele>1958.06</ele>
        <time>2018-01-30T13:03:09Z</time>
      </trkpt>
      <trkpt lat="42.88587" lon="-0.21008">
        <ele>1950.51</ele>
        <time>2018-01-30T13:03:13Z</time>
      </trkpt>
      <trkpt lat="42.88608" lon="-0.21008">
        <ele>1942.98</ele>
        <time>2018-01-30T13:03:16Z</time>
      </trkpt>
      <trkpt lat="42.88627" lon="-0.2101">
        <ele>1939.34</ele>
        <time>2018-01-30T13:03:19Z</time>
      </trkpt>
      <trkpt lat="42.88645" lon="-0.21008">
        <ele>1932.93</ele>
        <time>2018-01-30T13:03:23Z</time>
      </trkpt>
      <trkpt lat="42.8866" lon="-0.2099">
        <ele>1921.23</ele>
        <time>2018-01-30T13:03:27Z</time>
      </trkpt>
      <trkpt lat="42.88681" lon="-0.20987">
        <ele>1916.05</ele>
        <time>2018-01-30T13:03:32Z</time>
      </trkpt>
      <trkpt lat="42.88698" lon="-0.20975">
        <ele>1911.9</ele>
        <time>2018-01-30T13:03:37Z</time>
      </trkpt>
      <trkpt lat="42.88719" lon="-0.20984">
        <ele>1906.95</ele>
        <time>2018-01-30T13:03:41Z</time>
      </trkpt>
      <trkpt lat="42.88735" lon="-0.20997">
        <ele>1904.18</ele>
        <time>2018-01-30T13:03:43Z</time>
      </trkpt>
      <trkpt lat="42.88757" lon="-0.21003">
        <ele>1898.06</ele>
        <time>2018-01-30T13:03:47Z</time>
      </trkpt>
      <trkpt lat="42.88779" lon="-0.21008">
        <ele>1896.41</ele>
        <time>2018-01-30T13:03:52Z</time>
      </trkpt>
      <trkpt lat="42.88796" lon="-0.20994">
        <ele>1888.68</ele>
        <time>2018-01-30T13:04:09Z</time>
      </trkpt>
      <trkpt lat="42.88814" lon="-0.20988">
        <ele>1877.6</ele>
        <time>2018-01-30T13:04:13Z</time>
      </trkpt>
      <trkpt lat="42.88831" lon="-0.20997">
        <ele>1870.69</ele>
        <time>2018-01-30T13:04:16Z</time>
      </trkpt>
      <trkpt lat="42.88849" lon="-0.21008">
        <ele>1866.84</ele>
        <time>2018-01-30T13:04:21Z</time>
      </trkpt>
      <trkpt lat="42.88864" lon="-0.2099">
        <ele>1858.88</ele>
        <time>2018-01-30T13:04:31Z</time>
      </trkpt>
      <trkpt lat="42.88877" lon="-0.20973">
        <ele>1846.2</ele>
        <time>2018-01-30T13:04:36Z</time>
      </trkpt>
      <trkpt lat="42.88892" lon="-0.20957">
        <ele>1824.55</ele>
        <time>2018-01-30T13:04:41Z</time>
      </trkpt>
      <trkpt lat="42.88906" lon="-0.2094">
        <ele>1813.87</ele>
        <time>2018-01-30T13:05:20Z</time>
      </trkpt>
      <trkpt lat="42.88918" lon="-0.20962">
        <ele>1821.04</ele>
        <time>2018-01-30T13:31:02Z</time>
      </trkpt>
      <trkpt lat="42.88934" lon="-0.20973">
        <ele>1820.47</ele>
        <time>2018-01-30T13:37:26Z</time>
      </trkpt>
      <trkpt lat="42.88953" lon="-0.20975">
        <ele>1818.74</ele>
        <time>2018-01-30T13:37:38Z</time>
      </trkpt>
      <trkpt lat="42.88973" lon="-0.20977">
        <ele>1815.87</ele>
        <time>2018-01-30T13:37:50Z</time>
      </trkpt>
      <trkpt lat="42.8899" lon="-0.20985">
        <ele>1811.69</ele>
        <time>2018-01-30T13:37:59Z</time>
      </trkpt>
      <trkpt lat="42.89007" lon="-0.20971">
        <ele>1807.27</ele>
        <time>2018-01-30T13:38:07Z</time>
      </trkpt>
      <trkpt lat="42.89021" lon="-0.20956">
        <ele>1802.63</ele>
        <time>2018-01-30T13:38:14Z</time>
      </trkpt>
      <trkpt lat="42.89038" lon="-0.20967">
        <ele>1797.03</ele>
        <time>2018-01-30T13:38:22Z</time>
      </trkpt>
      <trkpt lat="42.89054" lon="-0.2098">
        <ele>1780.52</ele>
        <time>2018-01-30T13:39:58Z</time>
      </trkpt>
      <trkpt lat="42.89069" lon="-0.20996">
        <ele>1777.57</ele>
        <time>2018-01-30T13:40:03Z</time>
      </trkpt>
      <trkpt lat="42.89086" lon="-0.21014">
        <ele>1767.94</ele>
        <time>2018-01-30T13:40:09Z</time>
      </trkpt>
      <trkpt lat="42.89105" lon="-0.21018">
        <ele>1763.55</ele>
        <time>2018-01-30T13:40:21Z</time>
      </trkpt>
      <trkpt lat="42.89124" lon="-0.21006">
        <ele>1751.88</ele>
        <time>2018-01-30T13:40:26Z</time>
      </trkpt>
      <trkpt lat="42.89144" lon="-0.21011">
        <ele>1746.35</ele>
        <time>2018-01-30T13:40:31Z</time>
      </trkpt>
      <trkpt lat="42.89162" lon="-0.21017">
        <ele>1742.18</ele>
        <time>2018-01-30T13:40:44Z</time>
      </trkpt>
      <trkpt lat="42.89181" lon="-0.2102">
        <ele>1738.66</ele>
        <time>2018-01-30T13:40:51Z</time>
      </trkpt>
      <trkpt lat="42.89201" lon="-0.2101">
        <ele>1734</ele>
        <time>2018-01-30T13:40:59Z</time>
      </trkpt>
      <trkpt lat="42.89212" lon="-0.2099">
        <ele>1727.83</ele>
        <time>2018-01-30T13:41:07Z</time>
      </trkpt>
      <trkpt lat="42.89221" lon="-0.20965">
        <ele>1720.71</ele>
        <time>2018-01-30T13:41:14Z</time>
      </trkpt>
      <trkpt lat="42.89236" lon="-0.20949">
        <ele>1695.64</ele>
        <time>2018-01-30T13:41:20Z</time>
      </trkpt>
      <trkpt lat="42.89253" lon="-0.20958">
        <ele>1666.83</ele>
        <time>2018-01-30T13:47:18Z</time>
      </trkpt>
      <trkpt lat="42.89274" lon="-0.20969">
        <ele>1657.16</ele>
        <time>2018-01-30T13:48:15Z</time>
      </trkpt>
      <trkpt lat="42.8929" lon="-0.20983">
        <ele>1654.84</ele>
        <time>2018-01-30T13:48:22Z</time>
      </trkpt>
      <trkpt lat="42.8931" lon="-0.2099">
        <ele>1651.94</ele>
        <time>2018-01-30T13:48:30Z</time>
      </trkpt>
      <trkpt lat="42.89326" lon="-0.20978">
        <ele>1643.21</ele>
        <time>2018-01-30T13:48:48Z</time>
      </trkpt>
      <trkpt lat="42.89329" lon="-0.20953">
        <ele>1637.79</ele>
        <time>2018-01-30T13:48:55Z</time>
      </trkpt>
      <trkpt lat="42.89332" lon="-0.20927">
        <ele>1633.66</ele>
        <time>2018-01-30T13:49:03Z</time>
      </trkpt>
      <trkpt lat="42.89338" lon="-0.20901">
        <ele>1619.63</ele>
        <time>2018-01-30T13:49:09Z</time>
      </trkpt>
      <trkpt lat="42.89337" lon="-0.20876">
        <ele>1611.53</ele>
        <time>2018-01-30T13:49:26Z</time>
      </trkpt>
      <trkpt lat="42.89347" lon="-0.20856">
        <ele>1594.92</ele>
        <time>2018-01-30T13:49:39Z</time>
      </trkpt>
      <trkpt lat="42.89356" lon="-0.2083">
        <ele>1583.88</ele>
        <time>2018-01-30T13:49:43Z</time>
      </trkpt>
      <trkpt lat="42.89364" lon="-0.20805">
        <ele>1580.95</ele>
        <time>2018-01-30T13:49:52Z</time>
      </trkpt>
      <trkpt lat="42.8937" lon="-0.20781">
        <ele>1572.47</ele>
        <time>2018-01-30T13:49:57Z</time>
      </trkpt>
      <trkpt lat="42.89381" lon="-0.2076">
        <ele>1567.9</ele>
        <time>2018-01-30T13:50:15Z</time>
      </trkpt>
      <trkpt lat="42.89382" lon="-0.20735">
        <ele>1562.67</ele>
        <time>2018-01-30T13:51:05Z</time>
      </trkpt>
      <trkpt lat="42.89392" lon="-0.20712">
        <ele>1558.48</ele>
        <time>2018-01-30T13:51:23Z</time>
      </trkpt>
      <trkpt lat="42.89408" lon="-0.20722">
        <ele>1546.48</ele>
        <time>2018-01-30T13:52:22Z</time>
      </trkpt>
      <trkpt lat="42.8942" lon="-0.207">
        <ele>1543.65</ele>
        <time>2018-01-30T13:52:35Z</time>
      </trkpt>
      <trkpt lat="42.89425" lon="-0.20676">
        <ele>1540.85</ele>
        <time>2018-01-30T13:52:45Z</time>
      </trkpt>
      <trkpt lat="42.89423" lon="-0.20651">
        <ele>1538.47</ele>
        <time>2018-01-30T13:52:55Z</time>
      </trkpt>
      <trkpt lat="42.8942" lon="-0.20624">
        <ele>1536.71</ele>
        <time>2018-01-30T13:53:01Z</time>
      </trkpt>
      <trkpt lat="42.89405" lon="-0.20609">
        <ele>1526.93</ele>
        <time>2018-01-30T13:53:42Z</time>
      </trkpt>
      <trkpt lat="42.89407" lon="-0.20582">
        <ele>1501.14</ele>
        <time>2018-01-30T13:55:00Z</time>
      </trkpt>
      <trkpt lat="42.894" lon="-0.20559">
        <ele>1488.52</ele>
        <time>2018-01-30T13:56:00Z</time>
      </trkpt>
      <trkpt lat="42.89384" lon="-0.20547">
        <ele>1477.68</ele>
        <time>2018-01-30T13:56:39Z</time>
      </trkpt>
      <trkpt lat="42.89398" lon="-0.2053">
        <ele>1477.46</ele>
        <time>2018-01-30T13:57:00Z</time>
      </trkpt>
      <trkpt lat="42.89406" lon="-0.20506">
        <ele>1477.15</ele>
        <time>2018-01-30T13:57:54Z</time>
      </trkpt>
      <trkpt lat="42.89411" lon="-0.20483">
        <ele>1475.92</ele>
        <time>2018-01-30T13:58:56Z</time>
      </trkpt>
      <trkpt lat="42.89429" lon="-0.20489">
        <ele>1477.06</ele>
        <time>2018-01-30T13:59:17Z</time>
      </trkpt>
      <trkpt lat="42.89442" lon="-0.20507">
        <ele>1477.04</ele>
        <time>2018-01-30T13:59:29Z</time>
      </trkpt>
      <trkpt lat="42.89459" lon="-0.2052">
        <ele>1477.12</ele>
        <time>2018-01-30T13:59:50Z</time>
      </trkpt>
      <trkpt lat="42.89477" lon="-0.20519">
        <ele>1477.25</ele>
        <time>2018-01-30T14:00:07Z</time>
      </trkpt>
      <trkpt lat="42.89496" lon="-0.20514">
        <ele>1477.74</ele>
        <time>2018-01-30T14:00:25Z</time>
      </trkpt>
      <trkpt lat="42.89514" lon="-0.20517">
        <ele>1477.44</ele>
        <time>2018-01-30T14:00:42Z</time>
      </trkpt>
      <trkpt lat="42.89531" lon="-0.20529">
        <ele>1477.08</ele>
        <time>2018-01-30T14:00:59Z</time>
      </trkpt>
      <trkpt lat="42.89549" lon="-0.20538">
        <ele>1479.6</ele>
        <time>2018-01-30T14:03:25Z</time>
      </trkpt>
      <trkpt lat="42.89567" lon="-0.20539">
        <ele>1480.81</ele>
        <time>2018-01-30T14:03:42Z</time>
      </trkpt>
      <trkpt lat="42.89585" lon="-0.20545">
        <ele>1481.54</ele>
        <time>2018-01-30T14:03:51Z</time>
      </trkpt>
      <trkpt lat="42.89605" lon="-0.20551">
        <ele>1481.67</ele>
        <time>2018-01-30T14:03:59Z</time>
      </trkpt>
      <trkpt lat="42.89624" lon="-0.20556">
        <ele>1481.46</ele>
        <time>2018-01-30T14:04:07Z</time>
      </trkpt>
      <trkpt lat="42.89642" lon="-0.20568">
        <ele>1480.48</ele>
        <time>2018-01-30T14:04:14Z</time>
      </trkpt>
      <trkpt lat="42.89661" lon="-0.20582">
        <ele>1476.61</ele>
        <time>2018-01-30T14:04:19Z</time>
      </trkpt>
      <trkpt lat="42.89678" lon="-0.20595">
        <ele>1473.46</ele>
        <time>2018-01-30T14:04:23Z</time>
      </trkpt>
      <trkpt lat="42.89701" lon="-0.20609">
        <ele>1471.47</ele>
        <time>2018-01-30T14:04:26Z</time>
      </trkpt>
      <trkpt lat="42.89718" lon="-0.20621">
        <ele>1470</ele>
        <time>2018-01-30T14:04:28Z</time>
      </trkpt>
      <trkpt lat="42.89738" lon="-0.20634">
        <ele>1466.77</ele>
        <time>2018-01-30T14:04:31Z</time>
      </trkpt>
      <trkpt lat="42.89756" lon="-0.20646">
        <ele>1464.08</ele>
        <time>2018-01-30T14:04:35Z</time>
      </trkpt>
      <trkpt lat="42.89776" lon="-0.20656">
        <ele>1461.9</ele>
        <time>2018-01-30T14:04:41Z</time>
      </trkpt>
      <trkpt lat="42.89792" lon="-0.20668">
        <ele>1458.56</ele>
        <time>2018-01-30T14:04:46Z</time>
      </trkpt>
      <trkpt lat="42.89805" lon="-0.20649">
        <ele>1455.79</ele>
        <time>2018-01-30T14:04:54Z</time>
      </trkpt>
      <trkpt lat="42.89806" lon="-0.20623">
        <ele>1454.65</ele>
        <time>2018-01-30T14:05:00Z</time>
      </trkpt>
      <trkpt lat="42.89807" lon="-0.20593">
        <ele>1453.55</ele>
        <time>2018-01-30T14:05:06Z</time>
      </trkpt>
      <trkpt lat="42.89803" lon="-0.20565">
        <ele>1452.41</ele>
        <time>2018-01-30T14:05:11Z</time>
      </trkpt>
      <trkpt lat="42.89807" lon="-0.20537">
        <ele>1450.93</ele>
        <time>2018-01-30T14:05:17Z</time>
      </trkpt>
      <trkpt lat="42.89809" lon="-0.20508">
        <ele>1444.3</ele>
        <time>2018-01-30T14:05:22Z</time>
      </trkpt>
      <trkpt lat="42.89809" lon="-0.20482">
        <ele>1439.28</ele>
        <time>2018-01-30T14:05:26Z</time>
      </trkpt>
      <trkpt lat="42.89812" lon="-0.20456">
        <ele>1437</ele>
        <time>2018-01-30T14:05:30Z</time>
      </trkpt>
      <trkpt lat="42.89828" lon="-0.20443">
        <ele>1435.08</ele>
        <time>2018-01-30T14:05:35Z</time>
      </trkpt>
      <trkpt lat="42.89847" lon="-0.20434">
        <ele>1434.8</ele>
        <time>2018-01-30T14:05:41Z</time>
      </trkpt>
      <trkpt lat="42.89866" lon="-0.20427">
        <ele>1434.02</ele>
        <time>2018-01-30T14:05:50Z</time>
      </trkpt>
      <trkpt lat="42.89883" lon="-0.20415">
        <ele>1433.73</ele>
        <time>2018-01-30T14:05:59Z</time>
      </trkpt>
      <trkpt lat="42.89897" lon="-0.20395">
        <ele>1432.47</ele>
        <time>2018-01-30T14:06:09Z</time>
      </trkpt>
      <trkpt lat="42.89915" lon="-0.20387">
        <ele>1431.9</ele>
        <time>2018-01-30T14:06:16Z</time>
      </trkpt>
      <trkpt lat="42.89934" lon="-0.20384">
        <ele>1431.52</ele>
        <time>2018-01-30T14:06:23Z</time>
      </trkpt>
      <trkpt lat="42.89956" lon="-0.20374">
        <ele>1430.76</ele>
        <time>2018-01-30T14:06:36Z</time>
      </trkpt>
      <trkpt lat="42.89979" lon="-0.20371">
        <ele>1429.61</ele>
        <time>2018-01-30T14:06:51Z</time>
      </trkpt>
      <trkpt lat="42.89998" lon="-0.20373">
        <ele>1428.94</ele>
        <time>2018-01-30T14:07:03Z</time>
      </trkpt>
      <trkpt lat="42.90017" lon="-0.2037">
        <ele>1429.03</ele>
        <time>2018-01-30T14:07:17Z</time>
      </trkpt>
      <trkpt lat="42.90035" lon="-0.20368">
        <ele>1429.07</ele>
        <time>2018-01-30T14:07:28Z</time>
      </trkpt>
      <trkpt lat="42.90058" lon="-0.20375">
        <ele>1428.69</ele>
        <time>2018-01-30T14:07:36Z</time>
      </trkpt>
      <trkpt lat="42.90076" lon="-0.20388">
        <ele>1429.86</ele>
        <time>2018-01-30T14:07:50Z</time>
      </trkpt>
      <trkpt lat="42.90092" lon="-0.20401">
        <ele>1431.84</ele>
        <time>2018-01-30T14:08:08Z</time>
      </trkpt>
      <trkpt lat="42.9011" lon="-0.20397">
        <ele>1430.07</ele>
        <time>2018-01-30T14:08:18Z</time>
      </trkpt>
      <trkpt lat="42.9013" lon="-0.20402">
        <ele>1409.75</ele>
        <time>2018-01-30T14:08:27Z</time>
      </trkpt>
      <trkpt lat="42.90149" lon="-0.20408">
        <ele>1410.05</ele>
        <time>2018-01-30T14:08:36Z</time>
      </trkpt>
      <trkpt lat="42.90179" lon="-0.20404">
        <ele>1410.21</ele>
        <time>2018-01-30T14:08:40Z</time>
      </trkpt>
      <trkpt lat="42.90189" lon="-0.20382">
        <ele>1410.57</ele>
        <time>2018-01-30T14:08:47Z</time>
      </trkpt>
      <trkpt lat="42.9019" lon="-0.20356">
        <ele>1409.75</ele>
        <time>2018-01-30T14:08:53Z</time>
      </trkpt>
      <trkpt lat="42.90196" lon="-0.20331">
        <ele>1408.14</ele>
        <time>2018-01-30T14:08:58Z</time>
      </trkpt>
      <trkpt lat="42.90217" lon="-0.20317">
        <ele>1407.52</ele>
        <time>2018-01-30T14:09:01Z</time>
      </trkpt>
      <trkpt lat="42.90227" lon="-0.20296">
        <ele>1407.12</ele>
        <time>2018-01-30T14:09:07Z</time>
      </trkpt>
      <trkpt lat="42.90232" lon="-0.20272">
        <ele>1397.49</ele>
        <time>2018-01-30T14:09:13Z</time>
      </trkpt>
      <trkpt lat="42.90245" lon="-0.20244">
        <ele>1389.2</ele>
        <time>2018-01-30T14:09:19Z</time>
      </trkpt>
      <trkpt lat="42.90263" lon="-0.20232">
        <ele>1388.58</ele>
        <time>2018-01-30T14:09:22Z</time>
      </trkpt>
      <trkpt lat="42.90282" lon="-0.20224">
        <ele>1388.26</ele>
        <time>2018-01-30T14:09:25Z</time>
      </trkpt>
      <trkpt lat="42.90301" lon="-0.20208">
        <ele>1388.4</ele>
        <time>2018-01-30T14:09:30Z</time>
      </trkpt>
      <trkpt lat="42.90317" lon="-0.20188">
        <ele>1389.01</ele>
        <time>2018-01-30T14:09:34Z</time>
      </trkpt>
      <trkpt lat="42.90323" lon="-0.20162">
        <ele>1385.8</ele>
        <time>2018-01-30T14:09:39Z</time>
      </trkpt>
      <trkpt lat="42.9032" lon="-0.20133">
        <ele>1383.98</ele>
        <time>2018-01-30T14:09:45Z</time>
      </trkpt>
      <trkpt lat="42.90321" lon="-0.20106">
        <ele>1382.44</ele>
        <time>2018-01-30T14:09:51Z</time>
      </trkpt>
      <trkpt lat="42.90324" lon="-0.20132">
        <ele>1376.11</ele>
        <time>2018-01-30T14:09:58Z</time>
      </trkpt>
      <trkpt lat="42.90334" lon="-0.20154">
        <ele>1372.03</ele>
        <time>2018-01-30T14:10:02Z</time>
      </trkpt>
      <trkpt lat="42.90345" lon="-0.20175">
        <ele>1364.04</ele>
        <time>2018-01-30T14:10:05Z</time>
      </trkpt>
      <trkpt lat="42.90352" lon="-0.20202">
        <ele>1357.41</ele>
        <time>2018-01-30T14:10:09Z</time>
      </trkpt>
      <trkpt lat="42.90347" lon="-0.20232">
        <ele>1352.28</ele>
        <time>2018-01-30T14:10:13Z</time>
      </trkpt>
      <trkpt lat="42.90342" lon="-0.20258">
        <ele>1353.07</ele>
        <time>2018-01-30T14:10:16Z</time>
      </trkpt>
      <trkpt lat="42.90334" lon="-0.20287">
        <ele>1355.26</ele>
        <time>2018-01-30T14:10:20Z</time>
      </trkpt>
      <trkpt lat="42.90325" lon="-0.2031">
        <ele>1356.03</ele>
        <time>2018-01-30T14:10:25Z</time>
      </trkpt>
      <trkpt lat="42.90325" lon="-0.20335">
        <ele>1355.66</ele>
        <time>2018-01-30T14:10:34Z</time>
      </trkpt>
      <trkpt lat="42.90324" lon="-0.20363">
        <ele>1352.47</ele>
        <time>2018-01-30T14:10:41Z</time>
      </trkpt>
      <trkpt lat="42.90323" lon="-0.20389">
        <ele>1349.02</ele>
        <time>2018-01-30T14:10:46Z</time>
      </trkpt>
      <trkpt lat="42.90314" lon="-0.20413">
        <ele>1345.03</ele>
        <time>2018-01-30T14:10:51Z</time>
      </trkpt>
      <trkpt lat="42.90306" lon="-0.2044">
        <ele>1342.13</ele>
        <time>2018-01-30T14:10:55Z</time>
      </trkpt>
      <trkpt lat="42.90301" lon="-0.20474">
        <ele>1339.44</ele>
        <time>2018-01-30T14:11:00Z</time>
      </trkpt>
      <trkpt lat="42.90303" lon="-0.20447">
        <ele>1339.01</ele>
        <time>2018-01-30T14:11:10Z</time>
      </trkpt>
      <trkpt lat="42.90305" lon="-0.20422">
        <ele>1339.65</ele>
        <time>2018-01-30T14:11:17Z</time>
      </trkpt>
      <trkpt lat="42.90309" lon="-0.20395">
        <ele>1340.7</ele>
        <time>2018-01-30T14:11:22Z</time>
      </trkpt>
      <trkpt lat="42.90316" lon="-0.20372">
        <ele>1342.21</ele>
        <time>2018-01-30T14:11:28Z</time>
      </trkpt>
      <trkpt lat="42.90325" lon="-0.20347">
        <ele>1343.47</ele>
        <time>2018-01-30T14:11:34Z</time>
      </trkpt>
      <trkpt lat="42.90336" lon="-0.20326">
        <ele>1343.81</ele>
        <time>2018-01-30T14:11:41Z</time>
      </trkpt>
      <trkpt lat="42.90346" lon="-0.20301">
        <ele>1343.37</ele>
        <time>2018-01-30T14:11:48Z</time>
      </trkpt>
      <trkpt lat="42.90355" lon="-0.20276">
        <ele>1341.84</ele>
        <time>2018-01-30T14:11:56Z</time>
      </trkpt>
      <trkpt lat="42.90363" lon="-0.20247">
        <ele>1340.26</ele>
        <time>2018-01-30T14:12:02Z</time>
      </trkpt>
      <trkpt lat="42.90376" lon="-0.20225">
        <ele>1337.99</ele>
        <time>2018-01-30T14:12:06Z</time>
      </trkpt>
      <trkpt lat="42.90393" lon="-0.20204">
        <ele>1335.48</ele>
        <time>2018-01-30T14:12:11Z</time>
      </trkpt>
      <trkpt lat="42.90411" lon="-0.20186">
        <ele>1332.11</ele>
        <time>2018-01-30T14:12:15Z</time>
      </trkpt>
      <trkpt lat="42.90418" lon="-0.20159">
        <ele>1327.31</ele>
        <time>2018-01-30T14:12:19Z</time>
      </trkpt>
      <trkpt lat="42.90415" lon="-0.2013">
        <ele>1321.6</ele>
        <time>2018-01-30T14:12:23Z</time>
      </trkpt>
      <trkpt lat="42.90426" lon="-0.20154">
        <ele>1317.02</ele>
        <time>2018-01-30T14:12:35Z</time>
      </trkpt>
      <trkpt lat="42.90433" lon="-0.20179">
        <ele>1315.16</ele>
        <time>2018-01-30T14:12:39Z</time>
      </trkpt>
      <trkpt lat="42.90435" lon="-0.20207">
        <ele>1313.08</ele>
        <time>2018-01-30T14:12:44Z</time>
      </trkpt>
      <trkpt lat="42.90428" lon="-0.2023">
        <ele>1311.91</ele>
        <time>2018-01-30T14:12:49Z</time>
      </trkpt>
      <trkpt lat="42.90418" lon="-0.20254">
        <ele>1311.09</ele>
        <time>2018-01-30T14:12:57Z</time>
      </trkpt>
      <trkpt lat="42.90413" lon="-0.2028">
        <ele>1310.99</ele>
        <time>2018-01-30T14:13:04Z</time>
      </trkpt>
      <trkpt lat="42.9042" lon="-0.20304">
        <ele>1310.09</ele>
        <time>2018-01-30T14:13:10Z</time>
      </trkpt>
      <trkpt lat="42.90423" lon="-0.20334">
        <ele>1303.78</ele>
        <time>2018-01-30T14:13:17Z</time>
      </trkpt>
      <trkpt lat="42.90421" lon="-0.2036">
        <ele>1297.37</ele>
        <time>2018-01-30T14:13:20Z</time>
      </trkpt>
      <trkpt lat="42.90415" lon="-0.20388">
        <ele>1295.19</ele>
        <time>2018-01-30T14:13:25Z</time>
      </trkpt>
      <trkpt lat="42.90408" lon="-0.20412">
        <ele>1292.63</ele>
        <time>2018-01-30T14:13:30Z</time>
      </trkpt>
      <trkpt lat="42.90405" lon="-0.20438">
        <ele>1289.43</ele>
        <time>2018-01-30T14:13:36Z</time>
      </trkpt>
      <trkpt lat="42.90402" lon="-0.20465">
        <ele>1287.79</ele>
        <time>2018-01-30T14:13:40Z</time>
      </trkpt>
      <trkpt lat="42.90393" lon="-0.20488">
        <ele>1286.24</ele>
        <time>2018-01-30T14:13:45Z</time>
      </trkpt>
      <trkpt lat="42.90386" lon="-0.20513">
        <ele>1285.63</ele>
        <time>2018-01-30T14:13:48Z</time>
      </trkpt>
      <trkpt lat="42.90384" lon="-0.20538">
        <ele>1285.3</ele>
        <time>2018-01-30T14:13:51Z</time>
      </trkpt>
      <trkpt lat="42.90382" lon="-0.20566">
        <ele>1286.74</ele>
        <time>2018-01-30T14:13:54Z</time>
      </trkpt>
      <trkpt lat="42.9038" lon="-0.20594">
        <ele>1291.11</ele>
        <time>2018-01-30T14:13:58Z</time>
      </trkpt>
      <trkpt lat="42.90376" lon="-0.20619">
        <ele>1292.29</ele>
        <time>2018-01-30T14:14:03Z</time>
      </trkpt>
      <trkpt lat="42.90365" lon="-0.2064">
        <ele>1296.67</ele>
        <time>2018-01-30T14:14:16Z</time>
      </trkpt>
      <trkpt lat="42.9035" lon="-0.20654">
        <ele>1302.11</ele>
        <time>2018-01-30T14:14:28Z</time>
      </trkpt>
      <trkpt lat="42.90333" lon="-0.20667">
        <ele>1303.93</ele>
        <time>2018-01-30T14:14:32Z</time>
      </trkpt>
      <trkpt lat="42.90317" lon="-0.20682">
        <ele>1305.19</ele>
        <time>2018-01-30T14:14:35Z</time>
      </trkpt>
      <trkpt lat="42.90307" lon="-0.20707">
        <ele>1308</ele>
        <time>2018-01-30T14:14:41Z</time>
      </trkpt>
      <trkpt lat="42.90299" lon="-0.20733">
        <ele>1309.44</ele>
        <time>2018-01-30T14:14:45Z</time>
      </trkpt>
      <trkpt lat="42.90295" lon="-0.20757">
        <ele>1309.71</ele>
        <time>2018-01-30T14:14:49Z</time>
      </trkpt>
      <trkpt lat="42.90294" lon="-0.20783">
        <ele>1309.36</ele>
        <time>2018-01-30T14:14:54Z</time>
      </trkpt>
      <trkpt lat="42.90291" lon="-0.20808">
        <ele>1307.82</ele>
        <time>2018-01-30T14:15:01Z</time>
      </trkpt>
      <trkpt lat="42.90304" lon="-0.20788">
        <ele>1298.86</ele>
        <time>2018-01-30T14:15:31Z</time>
      </trkpt>
      <trkpt lat="42.90314" lon="-0.20767">
        <ele>1295.89</ele>
        <time>2018-01-30T14:15:37Z</time>
      </trkpt>
      <trkpt lat="42.90321" lon="-0.2074">
        <ele>1293.51</ele>
        <time>2018-01-30T14:15:42Z</time>
      </trkpt>
      <trkpt lat="42.90323" lon="-0.20715">
        <ele>1291.74</ele>
        <time>2018-01-30T14:15:46Z</time>
      </trkpt>
      <trkpt lat="42.90326" lon="-0.2069">
        <ele>1290.13</ele>
        <time>2018-01-30T14:15:50Z</time>
      </trkpt>
      <trkpt lat="42.90338" lon="-0.20668">
        <ele>1284.65</ele>
        <time>2018-01-30T14:15:55Z</time>
      </trkpt>
      <trkpt lat="42.90351" lon="-0.20652">
        <ele>1282.53</ele>
        <time>2018-01-30T14:16:01Z</time>
      </trkpt>
      <trkpt lat="42.90373" lon="-0.20646">
        <ele>1280.43</ele>
        <time>2018-01-30T14:16:06Z</time>
      </trkpt>
      <trkpt lat="42.90392" lon="-0.20643">
        <ele>1278.55</ele>
        <time>2018-01-30T14:16:10Z</time>
      </trkpt>
      <trkpt lat="42.90414" lon="-0.20636">
        <ele>1276.64</ele>
        <time>2018-01-30T14:16:14Z</time>
      </trkpt>
      <trkpt lat="42.9043" lon="-0.2062">
        <ele>1273.58</ele>
        <time>2018-01-30T14:16:20Z</time>
      </trkpt>
      <trkpt lat="42.90441" lon="-0.20596">
        <ele>1268.93</ele>
        <time>2018-01-30T14:16:28Z</time>
      </trkpt>
      <trkpt lat="42.90448" lon="-0.20568">
        <ele>1260.71</ele>
        <time>2018-01-30T14:16:40Z</time>
      </trkpt>
      <trkpt lat="42.90446" lon="-0.20536">
        <ele>1255.44</ele>
        <time>2018-01-30T14:16:45Z</time>
      </trkpt>
      <trkpt lat="42.90446" lon="-0.2051">
        <ele>1249.69</ele>
        <time>2018-01-30T14:16:51Z</time>
      </trkpt>
      <trkpt lat="42.90442" lon="-0.20484">
        <ele>1237.18</ele>
        <time>2018-01-30T14:17:06Z</time>
      </trkpt>
      <trkpt lat="42.90438" lon="-0.20459">
        <ele>1231.24</ele>
        <time>2018-01-30T14:17:13Z</time>
      </trkpt>
      <trkpt lat="42.90444" lon="-0.20434">
        <ele>1225.08</ele>
        <time>2018-01-30T14:17:21Z</time>
      </trkpt>
      <trkpt lat="42.90425" lon="-0.20456">
        <ele>1216.07</ele>
        <time>2018-01-30T14:17:37Z</time>
      </trkpt>
      <trkpt lat="42.90417" lon="-0.20479">
        <ele>1213.03</ele>
        <time>2018-01-30T14:17:41Z</time>
      </trkpt>
      <trkpt lat="42.90416" lon="-0.20504">
        <ele>1200.83</ele>
        <time>2018-01-30T14:17:51Z</time>
      </trkpt>
      <trkpt lat="42.9041" lon="-0.20529">
        <ele>1188.64</ele>
        <time>2018-01-30T14:18:00Z</time>
      </trkpt>
      <trkpt lat="42.90408" lon="-0.20555">
        <ele>1182.26</ele>
        <time>2018-01-30T14:18:05Z</time>
      </trkpt>
      <trkpt lat="42.904" lon="-0.20577">
        <ele>1173.22</ele>
        <time>2018-01-30T14:18:13Z</time>
      </trkpt>
      <trkpt lat="42.90461" lon="-0.20549">
        <ele>1170.72</ele>
        <time>2018-01-30T14:18:15Z</time>
      </trkpt>
      <trkpt lat="42.90479" lon="-0.20543">
        <ele>1168.65</ele>
        <time>2018-01-30T14:18:17Z</time>
      </trkpt>
      <trkpt lat="42.90484" lon="-0.20569">
        <ele>1163.03</ele>
        <time>2018-01-30T14:18:25Z</time>
      </trkpt>
      <trkpt lat="42.90479" lon="-0.20596">
        <ele>1159.09</ele>
        <time>2018-01-30T14:18:32Z</time>
      </trkpt>
      <trkpt lat="42.90477" lon="-0.20622">
        <ele>1156.14</ele>
        <time>2018-01-30T14:18:37Z</time>
      </trkpt>
      <trkpt lat="42.90474" lon="-0.20652">
        <ele>1153.54</ele>
        <time>2018-01-30T14:18:42Z</time>
      </trkpt>
      <trkpt lat="42.90467" lon="-0.20681">
        <ele>1148.23</ele>
        <time>2018-01-30T14:18:46Z</time>
      </trkpt>
      <trkpt lat="42.90461" lon="-0.20705">
        <ele>1145.88</ele>
        <time>2018-01-30T14:18:51Z</time>
      </trkpt>
      <trkpt lat="42.90465" lon="-0.20734">
        <ele>1141.68</ele>
        <time>2018-01-30T14:18:56Z</time>
      </trkpt>
      <trkpt lat="42.90465" lon="-0.20761">
        <ele>1135.65</ele>
        <time>2018-01-30T14:19:00Z</time>
      </trkpt>
      <trkpt lat="42.90461" lon="-0.20792">
        <ele>1135.37</ele>
        <time>2018-01-30T14:19:04Z</time>
      </trkpt>
      <trkpt lat="42.90451" lon="-0.2082">
        <ele>1135.27</ele>
        <time>2018-01-30T14:19:09Z</time>
      </trkpt>
      <trkpt lat="42.90442" lon="-0.20842">
        <ele>1135</ele>
        <time>2018-01-30T14:19:14Z</time>
      </trkpt>
      <trkpt lat="42.90433" lon="-0.20866">
        <ele>1134.27</ele>
        <time>2018-01-30T14:19:19Z</time>
      </trkpt>
      <trkpt lat="42.90428" lon="-0.2089">
        <ele>1133.19</ele>
        <time>2018-01-30T14:19:24Z</time>
      </trkpt>
      <trkpt lat="42.90427" lon="-0.2092">
        <ele>1132.45</ele>
        <time>2018-01-30T14:19:28Z</time>
      </trkpt>
      <trkpt lat="42.90425" lon="-0.20946">
        <ele>1131.43</ele>
        <time>2018-01-30T14:19:34Z</time>
      </trkpt>
      <trkpt lat="42.90417" lon="-0.20976">
        <ele>1130.02</ele>
        <time>2018-01-30T14:19:38Z</time>
      </trkpt>
      <trkpt lat="42.90409" lon="-0.21003">
        <ele>1129.35</ele>
        <time>2018-01-30T14:19:42Z</time>
      </trkpt>
      <trkpt lat="42.90396" lon="-0.21026">
        <ele>1128.71</ele>
        <time>2018-01-30T14:19:47Z</time>
      </trkpt>
      <trkpt lat="42.90384" lon="-0.21044">
        <ele>1128.36</ele>
        <time>2018-01-30T14:19:50Z</time>
      </trkpt>
      <trkpt lat="42.90367" lon="-0.21056">
        <ele>1128.08</ele>
        <time>2018-01-30T14:19:54Z</time>
      </trkpt>
      <trkpt lat="42.90348" lon="-0.21063">
        <ele>1128.14</ele>
        <time>2018-01-30T14:19:58Z</time>
      </trkpt>
      <trkpt lat="42.90329" lon="-0.21072">
        <ele>1127.64</ele>
        <time>2018-01-30T14:20:02Z</time>
      </trkpt>
      <trkpt lat="42.9031" lon="-0.21089">
        <ele>1125.85</ele>
        <time>2018-01-30T14:20:06Z</time>
      </trkpt>
      <trkpt lat="42.90296" lon="-0.21109">
        <ele>1122.84</ele>
        <time>2018-01-30T14:20:10Z</time>
      </trkpt>
      <trkpt lat="42.90282" lon="-0.21129">
        <ele>1117.16</ele>
        <time>2018-01-30T14:20:15Z</time>
      </trkpt>
      <trkpt lat="42.90286" lon="-0.21154">
        <ele>1099.38</ele>
        <time>2018-01-30T14:20:23Z</time>
      </trkpt>
      <trkpt lat="42.90277" lon="-0.21175">
        <ele>1108.54</ele>
        <time>2018-01-30T14:20:57Z</time>
      </trkpt>
      <trkpt lat="42.90284" lon="-0.21198">
        <ele>1158.55</ele>
        <time>2018-01-30T14:23:54Z</time>
      </trkpt>
      <trkpt lat="42.90296" lon="-0.21179">
        <ele>1193.78</ele>
        <time>2018-01-30T14:29:50Z</time>
      </trkpt>
      <trkpt lat="42.90311" lon="-0.21165">
        <ele>1194.45</ele>
        <time>2018-01-30T14:30:08Z</time>
      </trkpt>
      <trkpt lat="42.90325" lon="-0.21149">
        <ele>1193.07</ele>
        <time>2018-01-30T14:30:25Z</time>
      </trkpt>
      <trkpt lat="42.90342" lon="-0.21137">
        <ele>1190.16</ele>
        <time>2018-01-30T14:30:47Z</time>
      </trkpt>
      <trkpt lat="42.90357" lon="-0.21124">
        <ele>1186.11</ele>
        <time>2018-01-30T14:31:04Z</time>
      </trkpt>
      <trkpt lat="42.90375" lon="-0.21116">
        <ele>1181.94</ele>
        <time>2018-01-30T14:31:21Z</time>
      </trkpt>
      <trkpt lat="42.90392" lon="-0.21105">
        <ele>1179.18</ele>
        <time>2018-01-30T14:31:38Z</time>
      </trkpt>
      <trkpt lat="42.90407" lon="-0.21092">
        <ele>1177.61</ele>
        <time>2018-01-30T14:31:51Z</time>
      </trkpt>
      <trkpt lat="42.90424" lon="-0.21081">
        <ele>1175.58</ele>
        <time>2018-01-30T14:32:03Z</time>
      </trkpt>
      <trkpt lat="42.90442" lon="-0.21086">
        <ele>1173.08</ele>
        <time>2018-01-30T14:32:20Z</time>
      </trkpt>
    </trkseg>
  </trk>
</gpx>